Time;durP1;ratioP1;P1;durP2;ratioP2;P2;SDS_P1;SDS_P2;PMS_P1;PMS_P2;Temp;Humidity;BMP_temperature;BMP_pressure;BME280_temperature;BME280_humidity;BME280_pressure;Samples;Min_cycle;Max_cycle;Signal;HPM_P1;HPM_P2
2022/04/04 00:02:54;;;;;;;4.20;3.10;;;0.70;1.00;;;;;;8414563;28;20256;-58
2022/04/04 00:06:55;;;;;;;3.87;3.47;;;0.80;1.00;;;;;;8414171;28;20202;-60
2022/04/04 00:10:56;;;;;;;4.33;2.97;;;0.80;1.00;;;;;;8400710;28;20212;-60
2022/04/04 00:14:57;;;;;;;4.43;3.47;;;0.80;1.00;;;;;;8405975;28;20308;-59
2022/04/04 00:19:00;;;;;;;4.97;3.57;;;0.90;1.00;;;;;;8422066;28;20528;-60
2022/04/04 00:23:01;;;;;;;4.30;3.00;;;0.80;1.00;;;;;;8409644;28;20279;-61
2022/04/04 00:27:02;;;;;;;5.73;3.10;;;0.90;1.00;;;;;;8446808;28;20302;-59
2022/04/04 00:31:03;;;;;;;6.20;3.27;;;0.90;1.00;;;;;;8423559;28;20299;-61
2022/04/04 00:35:04;;;;;;;4.10;2.90;;;0.80;1.00;;;;;;8447518;28;20219;-60
2022/04/04 00:39:05;;;;;;;4.43;3.00;;;0.90;1.00;;;;;;8438747;28;20218;-58
2022/04/04 00:43:06;;;;;;;3.97;3.30;;;0.90;1.00;;;;;;8432990;28;20312;-60
2022/04/04 00:47:08;;;;;;;4.73;2.93;;;0.90;1.00;;;;;;8442373;28;20192;-62
2022/04/04 00:51:09;;;;;;;4.40;3.10;;;0.90;1.00;;;;;;8426076;28;20215;-61
2022/04/04 00:55:10;;;;;;;4.57;3.23;;;1.00;1.00;;;;;;8418127;28;20215;-60
2022/04/04 00:59:15;;;;;;;4.10;2.87;;;1.00;1.00;;;;;;8425613;28;20228;-60
2022/04/04 01:03:17;;;;;;;5.90;3.50;;;1.00;1.00;;;;;;8438815;28;20204;-59
2022/04/04 01:07:18;;;;;;;3.47;2.80;;;1.00;1.00;;;;;;8445616;28;20224;-60
2022/04/04 01:11:19;;;;;;;5.23;3.10;;;1.00;1.00;;;;;;8418946;28;20314;-59
2022/04/04 01:15:22;;;;;;;5.67;2.97;;;1.10;23.80;;;;;;8420918;28;20225;-60
2022/04/04 01:19:23;;;;;;;4.37;2.63;;;1.20;56.70;;;;;;8428903;28;20209;-61
2022/04/04 01:23:25;;;;;;;3.93;2.47;;;1.30;71.60;;;;;;8413178;28;20208;-59
2022/04/04 01:27:26;;;;;;;4.53;2.70;;;1.30;98.10;;;;;;8433033;28;20200;-60
2022/04/04 01:31:26;;;;;;;3.10;2.67;;;1.40;96.90;;;;;;8401766;28;20215;-60
2022/04/04 01:35:28;;;;;;;3.27;2.53;;;1.40;99.90;;;;;;8421727;28;20216;-61
2022/04/04 01:39:29;;;;;;;5.47;2.73;;;1.50;99.90;;;;;;8420813;28;20226;-60
2022/04/04 01:43:29;;;;;;;3.97;3.10;;;1.50;99.90;;;;;;8423785;28;20214;-66
2022/04/04 01:47:30;;;;;;;4.17;2.73;;;1.60;99.90;;;;;;8435523;28;20265;-62
2022/04/04 01:51:32;;;;;;;3.20;2.57;;;1.60;99.90;;;;;;8428549;28;20273;-61
2022/04/04 01:55:33;;;;;;;5.60;2.90;;;1.60;99.90;;;;;;8445559;28;20236;-60
2022/04/04 01:59:34;;;;;;;4.00;2.90;;;1.50;99.90;;;;;;8422999;28;20220;-59
2022/04/04 02:03:36;;;;;;;2.77;2.47;;;1.40;99.90;;;;;;8457078;28;20206;-61
2022/04/04 02:07:36;;;;;;;4.33;2.50;;;1.30;99.90;;;;;;8431755;28;20217;-61
2022/04/04 02:11:37;;;;;;;2.90;2.50;;;1.20;99.90;;;;;;8421827;28;20208;-61
2022/04/04 02:15:38;;;;;;;3.60;2.77;;;1.10;99.90;;;;;;8413707;28;20232;-61
2022/04/04 02:19:39;;;;;;;5.03;2.90;;;0.90;99.90;;;;;;8411783;28;20207;-59
2022/04/04 02:23:40;;;;;;;5.73;2.80;;;0.70;99.90;;;;;;8425110;28;20217;-60
2022/04/04 02:27:41;;;;;;;4.33;2.60;;;0.50;99.90;;;;;;8413445;28;20227;-60
2022/04/04 02:31:42;;;;;;;3.77;3.07;;;0.40;1.00;;;;;;8421971;28;20236;-60
2022/04/04 02:35:44;;;;;;;3.03;2.50;;;0.30;1.00;;;;;;8421849;28;20225;-60
2022/04/04 02:39:45;;;;;;;3.83;2.97;;;0.20;1.00;;;;;;8412672;28;20212;-60
2022/04/04 02:43:46;;;;;;;3.97;3.00;;;0.20;1.00;;;;;;8410661;28;20211;-60
2022/04/04 02:47:46;;;;;;;4.67;3.27;;;0.10;1.00;;;;;;8430475;28;20279;-60
2022/04/04 02:51:47;;;;;;;3.97;3.20;;;0.00;17.90;;;;;;8433228;28;20226;-59
2022/04/04 03:00:09;;;;;;;4.37;3.40;;;-0.20;73.90;;;;;;8441415;28;20225;-60
2022/04/04 03:04:10;;;;;;;5.87;3.60;;;-0.30;99.90;;;;;;8454786;28;20593;-59
2022/04/04 03:08:11;;;;;;;7.27;3.97;;;-0.30;99.90;;;;;;8444147;28;20237;-59
2022/04/04 03:12:12;;;;;;;5.97;4.10;;;-0.40;99.90;;;;;;8421567;28;20208;-60
2022/04/04 03:16:13;;;;;;;5.33;4.27;;;-0.40;99.90;;;;;;8416906;28;20223;-59
2022/04/04 03:20:15;;;;;;;7.90;4.30;;;-0.40;99.90;;;;;;8425726;28;20501;-59
2022/04/04 03:24:16;;;;;;;3.97;3.30;;;-0.40;99.90;;;;;;8428375;28;20215;-60
2022/04/04 03:28:17;;;;;;;5.33;3.43;;;-0.40;99.90;;;;;;8454000;28;20195;-59
2022/04/04 03:32:18;;;;;;;5.33;3.90;;;-0.50;99.90;;;;;;8434687;28;20207;-61
2022/04/04 03:36:20;;;;;;;5.53;4.20;;;-0.50;99.90;;;;;;8432910;28;20250;-60
2022/04/04 03:40:21;;;;;;;4.70;3.57;;;-0.50;99.90;;;;;;8407610;28;20233;-59
2022/04/04 03:44:22;;;;;;;5.97;4.30;;;-0.50;99.90;;;;;;8433560;28;20200;-59
2022/04/04 03:48:23;;;;;;;8.83;4.63;;;-0.50;99.90;;;;;;8447169;28;20238;-61
2022/04/04 03:52:24;;;;;;;6.37;4.13;;;-0.50;99.90;;;;;;8416788;28;20188;-59
2022/04/04 03:56:25;;;;;;;6.27;4.23;;;-0.60;99.90;;;;;;8408525;28;20268;-60
2022/04/04 04:00:26;;;;;;;8.90;4.50;;;-0.60;1.00;;;;;;8424049;28;20257;-61
2022/04/04 04:04:27;;;;;;;8.37;4.30;;;-0.60;1.00;;;;;;8403476;28;20207;-61
2022/04/04 04:08:28;;;;;;;7.40;5.23;;;-0.60;1.00;;;;;;8406480;28;20212;-59
2022/04/04 04:12:29;;;;;;;6.37;4.60;;;-0.70;1.00;;;;;;8425628;28;20247;-59
2022/04/04 04:16:30;;;;;;;6.97;4.63;;;-0.70;1.00;;;;;;8415459;28;20401;-60
2022/04/04 04:20:32;;;;;;;7.07;5.00;;;-0.70;23.20;;;;;;8434481;28;20234;-59
2022/04/04 04:24:33;;;;;;;6.87;5.00;;;-0.70;99.90;;;;;;8424285;28;20199;-61
2022/04/04 04:28:34;;;;;;;7.10;4.73;;;-0.60;99.90;;;;;;8440143;28;20218;-59
2022/04/04 04:32:35;;;;;;;6.20;4.23;;;-0.60;99.90;;;;;;8439761;28;20255;-59
2022/04/04 04:36:39;;;;;;;10.60;4.77;;;-0.50;99.90;;;;;;8429076;28;20227;-61
2022/04/04 04:40:40;;;;;;;8.33;4.93;;;-0.50;66.30;;;;;;8409865;28;20215;-59
2022/04/04 04:44:41;;;;;;;7.60;4.87;;;-0.40;22.70;;;;;;8418323;28;20199;-60
2022/04/04 04:48:42;;;;;;;8.50;4.90;;;-0.30;1.00;;;;;;8449300;28;20207;-60
2022/04/04 04:52:46;;;;;;;6.03;4.40;;;-0.30;1.00;;;;;;8418763;28;20212;-59
2022/04/04 04:56:47;;;;;;;6.43;4.10;;;-0.20;1.00;;;;;;8414772;28;20219;-60
2022/04/04 05:00:47;;;;;;;6.33;4.27;;;0.00;1.00;;;;;;8412146;28;20200;-60
2022/04/04 05:04:48;;;;;;;5.70;4.30;;;0.10;99.90;;;;;;8405358;28;20200;-62
2022/04/04 05:08:49;;;;;;;4.70;3.83;;;0.20;99.90;;;;;;8405399;28;20230;-60
2022/04/04 05:12:50;;;;;;;7.60;4.20;;;0.30;99.90;;;;;;8406495;28;20196;-59
2022/04/04 05:16:50;;;;;;;9.37;4.23;;;0.50;99.90;;;;;;8428353;28;20226;-60
2022/04/04 05:20:51;;;;;;;6.93;4.00;;;0.70;25.40;;;;;;8440398;28;20208;-60
2022/04/04 05:24:52;;;;;;;6.50;4.23;;;0.90;1.00;;;;;;8430034;28;20225;-59
2022/04/04 05:28:54;;;;;;;7.67;4.37;;;1.10;1.00;;;;;;8439027;28;20204;-59
2022/04/04 05:32:55;;;;;;;5.50;4.30;;;1.30;1.00;;;;;;8452825;28;20204;-59
2022/04/04 05:36:56;;;;;;;5.70;4.10;;;1.40;1.00;;;;;;8431960;28;20221;-61
2022/04/04 05:40:56;;;;;;;5.87;4.33;;;1.60;99.90;;;;;;8439266;28;20195;-61
2022/04/04 05:44:57;;;;;;;5.63;3.93;;;1.80;99.90;;;;;;8421695;28;20270;-59
2022/04/04 05:48:58;;;;;;;6.33;4.20;;;2.00;99.90;;;;;;8432102;28;20220;-60
2022/04/04 05:52:59;;;;;;;6.40;4.50;;;2.10;99.90;;;;;;8424000;28;20219;-62
2022/04/04 05:57:00;;;;;;;6.20;4.10;;;2.30;99.90;;;;;;8422998;28;20337;-59
2022/04/04 06:01:01;;;;;;;5.27;3.87;;;2.50;99.90;;;;;;8431756;28;20225;-62
2022/04/04 06:05:02;;;;;;;4.10;3.37;;;2.60;99.90;;;;;;8443009;28;20258;-59
2022/04/04 06:09:02;;;;;;;5.63;4.00;;;2.80;99.90;;;;;;8437984;28;20212;-60
2022/04/04 06:13:03;;;;;;;4.77;3.87;;;3.00;99.90;;;;;;8424687;28;20204;-58
2022/04/04 06:17:05;;;;;;;5.43;3.30;;;3.20;81.70;;;;;;8411003;28;20223;-60
2022/04/04 06:21:06;;;;;;;5.13;3.50;;;3.30;51.70;;;;;;8433818;28;20284;-61
2022/04/04 06:25:09;;;;;;;4.13;3.53;;;3.40;9.20;;;;;;8429749;28;20206;-60
2022/04/04 06:29:09;;;;;;;4.50;3.57;;;3.60;3.30;;;;;;8454464;28;20252;-59
2022/04/04 06:33:11;;;;;;;5.37;3.60;;;3.80;1.00;;;;;;8433922;28;20200;-59
2022/04/04 06:37:12;;;;;;;3.70;3.07;;;3.90;1.00;;;;;;8420586;28;20298;-61
2022/04/04 06:41:13;;;;;;;4.03;3.33;;;4.00;1.00;;;;;;8403422;28;20204;-59
2022/04/04 06:45:15;;;;;;;5.73;3.70;;;4.00;1.00;;;;;;8410956;28;20203;-61
2022/04/04 06:49:16;;;;;;;5.67;3.20;;;4.10;1.00;;;;;;8410128;28;20258;-60
2022/04/04 06:53:21;;;;;;;5.73;3.40;;;4.30;1.00;;;;;;8416779;28;20214;-59
2022/04/04 06:57:25;;;;;;;5.17;4.23;;;4.50;1.00;;;;;;8436254;28;20283;-60
2022/04/04 07:01:26;;;;;;;4.90;3.70;;;4.50;1.00;;;;;;8453035;28;20300;-62
2022/04/04 07:05:27;;;;;;;4.83;3.77;;;4.60;1.00;;;;;;8455638;28;20292;-60
2022/04/04 07:09:29;;;;;;;4.27;3.60;;;4.60;1.00;;;;;;8433960;28;20200;-59
2022/04/04 07:13:33;;;;;;;4.67;4.00;;;4.80;1.00;;;;;;8413177;28;20212;-61
2022/04/04 07:17:35;;;;;;;4.80;3.93;;;5.10;1.00;;;;;;8404927;28;20223;-58
2022/04/04 07:21:35;;;;;;;4.97;3.80;;;5.20;1.00;;;;;;8418585;28;20203;-61
2022/04/04 07:25:36;;;;;;;5.73;4.47;;;5.30;1.00;;;;;;8431392;28;20221;-59
2022/04/04 07:29:37;;;;;;;5.10;4.57;;;5.30;99.90;;;;;;8401928;28;20207;-59
2022/04/04 07:33:38;;;;;;;6.53;5.00;;;5.30;1.00;;;;;;8419742;28;20271;-61
2022/04/04 07:37:43;;;;;;;6.37;4.40;;;5.30;1.00;;;;;;8423714;28;20254;-61
2022/04/04 07:41:44;;;;;;;7.40;5.00;;;5.50;99.90;;;;;;8425249;28;20211;-60
2022/04/04 07:45:44;;;;;;;4.03;3.57;;;5.80;99.90;;;;;;8431331;28;20296;-60
2022/04/04 07:49:45;;;;;;;5.73;4.30;;;5.90;99.90;;;;;;8442228;28;20528;-60
2022/04/04 07:53:46;;;;;;;5.00;4.27;;;6.10;99.90;;;;;;8447149;28;20219;-61
2022/04/04 07:57:47;;;;;;;5.00;4.30;;;6.10;99.90;;;;;;8414512;28;20241;-59
2022/04/04 08:01:48;;;;;;;5.23;4.60;;;6.20;99.90;;;;;;8438257;28;20215;-70
2022/04/04 08:05:49;;;;;;;6.80;4.53;;;6.30;99.90;;;;;;8440842;28;20207;-61
2022/04/04 08:09:51;;;;;;;6.03;4.60;;;6.40;99.90;;;;;;8441830;28;20208;-60
2022/04/04 08:13:52;;;;;;;6.30;4.50;;;6.30;99.90;;;;;;8441688;28;20210;-59
2022/04/04 08:17:53;;;;;;;6.07;4.27;;;6.60;99.90;;;;;;8455234;28;20222;-59
2022/04/04 08:21:54;;;;;;;7.73;4.33;;;6.90;99.90;;;;;;8432827;28;20228;-59
2022/04/04 08:25:56;;;;;;;4.97;4.23;;;7.00;99.90;;;;;;8430883;28;20226;-58
2022/04/04 08:29:56;;;;;;;5.67;4.23;;;7.20;99.90;;;;;;8457616;28;20195;-58
2022/04/04 08:33:57;;;;;;;3.83;3.50;;;7.40;99.90;;;;;;8417956;28;20230;-60
2022/04/04 08:37:58;;;;;;;4.00;3.60;;;7.50;99.90;;;;;;8426527;28;20594;-59
2022/04/04 08:41:59;;;;;;;4.93;3.93;;;7.60;99.90;;;;;;8432177;28;20215;-62
2022/04/04 08:46:01;;;;;;;7.90;4.20;;;7.60;99.90;;;;;;8416392;28;20262;-60
2022/04/04 08:50:02;;;;;;;9.57;3.70;;;7.60;99.90;;;;;;8428892;28;20209;-59
2022/04/04 08:54:04;;;;;;;5.13;4.00;;;7.90;99.90;;;;;;8440719;28;20209;-60
2022/04/04 08:58:05;;;;;;;6.40;4.27;;;8.30;99.90;;;;;;8420031;28;20267;-60
2022/04/04 09:02:06;;;;;;;3.57;3.27;;;8.20;99.90;;;;;;8423181;28;20212;-59
2022/04/04 09:06:06;;;;;;;5.13;4.63;;;8.40;99.90;;;;;;8422911;28;20192;-59
2022/04/04 09:10:12;;;;;;;6.57;3.97;;;8.90;99.90;;;;;;8413823;28;20259;-61
2022/04/04 09:14:13;;;;;;;4.77;4.27;;;9.20;99.90;;;;;;8422444;28;20208;-60
2022/04/04 09:18:14;;;;;;;4.97;4.33;;;9.20;93.00;;;;;;8434689;28;20223;-60
2022/04/04 09:22:20;;;;;;;4.87;3.70;;;9.10;85.30;;;;;;8432939;28;20204;-60
2022/04/04 09:26:35;;;;;;;4.63;3.97;;;9.30;68.50;;;;;;8433165;28;20200;-62
2022/04/04 09:30:36;;;;;;;5.43;4.53;;;9.10;38.40;;;;;;8439118;28;20233;-59
2022/04/04 09:34:53;;;;;;;5.97;5.37;;;9.30;30.00;;;;;;8420188;28;20216;-59
2022/04/04 09:38:59;;;;;;;8.07;4.80;;;9.80;21.70;;;;;;8437223;28;20223;-60
2022/04/04 09:43:01;;;;;;;6.20;4.80;;;10.00;6.00;;;;;;8409512;28;20235;-61
2022/04/04 09:47:02;;;;;;;5.77;5.17;;;10.20;1.00;;;;;;8409093;28;20215;-63
2022/04/04 09:51:03;;;;;;;6.03;5.43;;;10.20;1.00;;;;;;8411203;28;20223;-60
2022/04/04 09:55:04;;;;;;;5.37;4.87;;;10.00;1.00;;;;;;8412049;28;20334;-61
2022/04/04 09:59:05;;;;;;;6.60;4.90;;;9.80;1.00;;;;;;8410084;28;20306;-61
2022/04/04 10:03:13;;;;;;;6.67;4.80;;;9.80;1.00;;;;;;8433378;28;20209;-60
2022/04/04 10:07:17;;;;;;;5.60;5.10;;;9.80;1.00;;;;;;8435934;28;20200;-62
2022/04/04 10:11:18;;;;;;;5.30;4.57;;;9.70;1.00;;;;;;8433283;28;20219;-60
2022/04/04 10:15:20;;;;;;;7.20;4.57;;;9.30;1.00;;;;;;8445209;28;20235;-59
2022/04/04 10:19:24;;;;;;;7.40;4.27;;;9.60;1.60;;;;;;8430444;28;20228;-63
2022/04/04 10:23:26;;;;;;;4.07;3.67;;;10.00;1.00;;;;;;8407141;28;20199;-59
